createdAt,value
2019-02-14T00:00:55.357Z,69.40
2019-02-14T00:03:21.582Z,69.33
2019-02-14T00:05:47.809Z,69.59
2019-02-14T00:08:14.166Z,69.42
2019-02-14T00:10:41.452Z,69.48
2019-02-14T00:13:07.611Z,69.72
2019-02-14T00:15:33.848Z,69.88
2019-02-14T00:18:00.090Z,69.69
2019-02-14T00:20:26.307Z,69.48
2019-02-14T00:22:52.502Z,69.64
2019-02-14T00:25:19.199Z,69.82
2019-02-14T00:27:45.397Z,69.70
2019-02-14T00:30:11.503Z,69.57
2019-02-14T00:32:37.671Z,69.57
2019-02-14T00:35:04.711Z,69.51
2019-02-14T00:37:31.205Z,69.71
2019-02-14T00:39:57.447Z,69.48
2019-02-14T00:42:25.867Z,69.51
2019-02-14T00:44:52.084Z,69.33
2019-02-14T00:47:19.137Z,69.16
2019-02-14T00:49:45.319Z,69.29
2019-02-14T00:52:12.101Z,69.57
2019-02-14T00:54:38.300Z,70.31
2019-02-14T00:57:04.392Z,71.44
2019-02-14T00:59:31.107Z,72.26
2019-02-14T01:01:57.253Z,72.37
2019-02-14T01:04:24.090Z,72.61
2019-02-14T01:06:50.248Z,72.66
2019-02-14T01:09:18.026Z,72.00
2019-02-14T01:11:44.180Z,71.86
2019-02-14T01:14:12.458Z,71.23
2019-02-14T01:16:38.584Z,70.97
2019-02-14T01:19:08.715Z,71.20
2019-02-14T01:21:34.847Z,70.93
2019-02-14T01:24:00.983Z,71.02
2019-02-14T01:26:27.134Z,70.94
2019-02-14T01:28:53.319Z,70.97
2019-02-14T01:31:22.288Z,70.54
2019-02-14T01:33:48.404Z,70.52
2019-02-14T01:36:14.522Z,70.54
2019-02-14T01:38:40.704Z,70.45
2019-02-14T01:41:06.778Z,70.02
2019-02-14T01:43:33.290Z,69.72
2019-02-14T01:45:59.415Z,69.33
2019-02-14T01:48:26.665Z,69.46
2019-02-14T01:50:52.810Z,69.19
2019-02-14T01:53:20.917Z,68.43
2019-02-14T01:55:47.043Z,68.35
2019-02-14T01:58:13.162Z,68.61
2019-02-14T02:00:39.298Z,68.21
2019-02-14T02:03:05.429Z,68.20
2019-02-14T02:05:31.627Z,67.45
2019-02-14T02:07:57.755Z,67.87
2019-02-14T02:10:23.885Z,67.94
2019-02-14T02:12:50.296Z,68.06
2019-02-14T02:15:16.393Z,68.20
2019-02-14T02:17:43.255Z,68.43
2019-02-14T02:20:10.337Z,68.63
2019-02-14T02:22:36.535Z,68.68
2019-02-14T02:25:04.935Z,68.79
2019-02-14T02:27:34.057Z,68.53
2019-02-14T02:30:00.419Z,68.87
2019-02-14T02:32:33.740Z,68.97
2019-02-14T02:34:59.829Z,68.88
2019-02-14T02:37:29.218Z,68.73
2019-02-14T02:39:55.316Z,68.37
2019-02-14T02:42:21.629Z,67.89
2019-02-14T02:44:47.724Z,68.32
2019-02-14T02:47:14.156Z,68.40
2019-02-14T02:49:41.388Z,68.35
2019-02-14T02:52:07.601Z,68.33
2019-02-14T02:54:33.746Z,68.74
2019-02-14T02:56:59.881Z,68.77
2019-02-14T02:59:26.046Z,68.76
2019-02-14T03:01:52.213Z,68.92
2019-02-14T03:04:19.323Z,68.98
2019-02-14T03:06:45.468Z,68.86
2019-02-14T03:09:14.607Z,69.08
2019-02-14T03:11:42.395Z,68.83
2019-02-14T03:14:08.614Z,68.96
2019-02-14T03:16:34.861Z,69.00
2019-02-14T03:19:01.144Z,69.14
2019-02-14T03:21:27.375Z,69.18
2019-02-14T03:23:54.196Z,69.23
2019-02-14T03:26:20.424Z,69.07
2019-02-14T03:28:46.612Z,68.85
2019-02-14T03:31:12.760Z,68.91
2019-02-14T03:33:38.948Z,69.13
2019-02-14T03:36:06.103Z,68.98
2019-02-14T03:38:32.328Z,68.83
2019-02-14T03:41:00.476Z,68.95
2019-02-14T03:43:26.553Z,69.14
2019-02-14T03:45:53.093Z,69.10
2019-02-14T03:48:19.320Z,69.12
2019-02-14T03:50:45.557Z,69.06
2019-02-14T03:53:11.749Z,69.41
2019-02-14T03:55:37.962Z,69.47
2019-02-14T03:58:04.382Z,69.53
2019-02-14T04:00:31.347Z,69.38
2019-02-14T04:02:57.541Z,69.30
2019-02-14T04:05:23.645Z,69.35
2019-02-14T04:07:49.850Z,69.68
2019-02-14T04:10:16.820Z,69.58
2019-02-14T04:12:43.145Z,69.98
2019-02-14T04:15:11.815Z,69.79
2019-02-14T04:17:38.105Z,69.41
2019-02-14T04:20:06.979Z,69.53
2019-02-14T04:22:33.416Z,69.20
2019-02-14T04:25:00.837Z,69.23
2019-02-14T04:27:27.106Z,69.14
2019-02-14T04:29:53.821Z,69.11
2019-02-14T04:32:20.971Z,69.22
2019-02-14T04:34:49.962Z,69.26
2019-02-14T04:37:16.220Z,69.23
2019-02-14T04:39:42.506Z,68.83
2019-02-14T04:42:12.026Z,68.63
2019-02-14T04:44:38.119Z,68.66
2019-02-14T04:47:04.382Z,68.64
2019-02-14T04:49:30.489Z,68.29
2019-02-14T04:51:58.136Z,68.19
2019-02-14T04:54:24.260Z,67.83
2019-02-14T04:56:50.549Z,67.73
2019-02-14T04:59:16.653Z,67.95
2019-02-14T05:01:44.234Z,68.12
2019-02-14T05:04:10.364Z,68.28
2019-02-14T05:06:44.071Z,67.87
2019-02-14T05:09:07.996Z,68.11
2019-02-14T05:11:36.497Z,67.64
2019-02-14T05:14:02.681Z,67.64
2019-02-14T05:16:28.932Z,67.99
2019-02-14T05:18:55.347Z,67.84
2019-02-14T05:21:21.534Z,67.80
2019-02-14T05:23:47.732Z,67.83
2019-02-14T05:26:13.919Z,67.90
2019-02-14T05:28:40.829Z,67.64
2019-02-14T05:31:07.016Z,67.78
2019-02-14T05:33:33.175Z,67.92
2019-02-14T05:35:59.473Z,67.76
2019-02-14T05:38:25.645Z,67.68
2019-02-14T05:40:52.040Z,67.77
2019-02-14T05:43:18.216Z,67.93
2019-02-14T05:45:44.443Z,67.63
2019-02-14T05:48:10.610Z,67.81
2019-02-14T05:50:36.721Z,67.73
2019-02-14T05:53:03.629Z,67.65
2019-02-14T05:55:29.866Z,67.92
2019-02-14T05:57:57.945Z,67.88
2019-02-14T06:00:24.197Z,67.63
2019-02-14T06:02:50.427Z,67.61
2019-02-14T06:05:16.567Z,67.49
2019-02-14T06:07:44.395Z,68.02
2019-02-14T06:10:10.729Z,67.81
2019-02-14T06:12:37.243Z,67.99
2019-02-14T06:15:11.527Z,68.04
2019-02-14T06:17:37.810Z,68.02
2019-02-14T06:20:13.566Z,68.22
2019-02-14T06:22:40.265Z,68.09
2019-02-14T06:25:09.313Z,68.30
2019-02-14T06:27:35.588Z,68.68
2019-02-14T06:30:01.949Z,68.13
2019-02-14T06:32:28.183Z,68.40
2019-02-14T06:34:54.429Z,68.09
2019-02-14T06:37:20.653Z,67.95
2019-02-14T06:39:46.987Z,68.43
2019-02-14T06:42:13.122Z,68.47
2019-02-14T06:44:39.499Z,68.60
2019-02-14T06:47:05.599Z,68.94
2019-02-14T06:49:32.908Z,68.98
2019-02-14T06:52:00.253Z,69.13
2019-02-14T06:54:26.475Z,69.38
2019-02-14T06:56:52.696Z,68.94
2019-02-14T06:59:18.790Z,68.60
2019-02-14T07:01:45.011Z,68.68
2019-02-14T07:04:11.174Z,68.83
2019-02-14T07:06:37.484Z,68.87
2019-02-14T07:09:04.311Z,68.71
2019-02-14T07:11:32.977Z,68.83
2019-02-14T07:13:59.078Z,68.38
2019-02-14T07:16:25.282Z,67.93
2019-02-14T07:18:52.581Z,67.68
2019-02-14T07:21:18.805Z,67.65
2019-02-14T07:23:44.919Z,68.01
2019-02-14T07:26:11.134Z,68.09
2019-02-14T07:28:37.322Z,68.08
2019-02-14T07:31:04.266Z,68.10
2019-02-14T07:33:30.512Z,67.77
2019-02-14T07:35:56.714Z,67.69
2019-02-14T07:38:22.824Z,67.64
2019-02-14T07:40:50.121Z,67.39
2019-02-14T07:43:16.222Z,66.83
2019-02-14T07:45:42.482Z,67.21
2019-02-14T07:48:09.583Z,66.73
2019-02-14T07:50:35.783Z,66.80
2019-02-14T07:53:03.564Z,66.76
2019-02-14T07:55:29.790Z,66.69
2019-02-14T07:57:56.010Z,67.31
2019-02-14T08:00:22.110Z,67.60
2019-02-14T08:02:48.299Z,67.28
2019-02-14T08:05:14.471Z,67.66
2019-02-14T08:07:40.697Z,67.18
2019-02-14T08:10:16.141Z,67.56
2019-02-14T08:12:42.364Z,68.02
2019-02-14T08:15:10.520Z,68.18
2019-02-14T08:17:36.884Z,67.01
2019-02-14T08:20:06.341Z,67.28
2019-02-14T08:22:32.517Z,67.50
2019-02-14T08:24:58.740Z,67.05
2019-02-14T08:27:24.842Z,66.59
2019-02-14T08:29:51.767Z,66.18
2019-02-14T08:32:18.404Z,65.90
2019-02-14T08:34:44.621Z,65.69
2019-02-14T08:37:11.466Z,66.09
2019-02-14T08:39:37.665Z,65.04
2019-02-14T08:42:03.907Z,64.51
2019-02-14T08:44:30.612Z,64.24
2019-02-14T08:46:57.863Z,64.52
2019-02-14T08:49:24.056Z,63.74
2019-02-14T08:51:50.313Z,63.64
2019-02-14T08:54:16.589Z,64.03
2019-02-14T08:56:42.812Z,64.18
2019-02-14T08:59:09.017Z,64.16
2019-02-14T09:01:35.541Z,63.17
2019-02-14T09:04:02.907Z,63.47
2019-02-14T09:06:30.112Z,63.31
2019-02-14T09:08:56.232Z,62.85
2019-02-14T09:11:22.431Z,62.57
2019-02-14T09:13:48.581Z,62.22
2019-02-14T09:16:14.810Z,61.52
2019-02-14T09:18:40.915Z,61.33
2019-02-14T09:21:07.078Z,61.31
2019-02-14T09:23:33.248Z,61.01
2019-02-14T09:25:59.447Z,60.67
2019-02-14T09:28:25.679Z,60.84
2019-02-14T09:30:51.833Z,60.78
2019-02-14T09:33:18.083Z,60.20
2019-02-14T09:35:45.457Z,59.59
2019-02-14T09:38:11.602Z,59.45
2019-02-14T09:40:40.319Z,58.47
2019-02-14T09:43:07.589Z,58.34
2019-02-14T09:45:33.792Z,57.60
2019-02-14T09:48:00.715Z,57.85
2019-02-14T09:50:26.943Z,57.39
2019-02-14T09:52:53.021Z,56.88
2019-02-14T09:55:19.596Z,57.20
2019-02-14T09:57:45.783Z,55.69
2019-02-14T10:00:16.185Z,55.20
2019-02-14T10:02:42.411Z,54.61
2019-02-14T10:05:09.022Z,53.77
2019-02-14T10:07:35.221Z,52.39
2019-02-14T10:10:01.351Z,51.97
2019-02-14T10:12:31.167Z,52.08
2019-02-14T10:14:57.341Z,50.73
2019-02-14T10:17:23.571Z,50.71
2019-02-14T10:19:49.735Z,50.48
2019-02-14T10:22:15.947Z,48.77
2019-02-14T10:24:42.191Z,47.38
2019-02-14T10:27:08.382Z,47.14
2019-02-14T10:29:35.480Z,47.43
2019-02-14T10:32:01.668Z,46.78
2019-02-14T10:34:27.778Z,46.51
2019-02-14T10:36:54.480Z,46.49
2019-02-14T10:39:20.619Z,46.31
2019-02-14T10:41:47.564Z,44.67
2019-02-14T10:44:13.668Z,44.55
2019-02-14T10:46:39.906Z,41.29
2019-02-14T10:49:05.988Z,41.33
2019-02-14T10:51:32.165Z,40.96
2019-02-14T10:53:59.337Z,40.75
2019-02-14T10:56:25.542Z,40.43
2019-02-14T10:58:51.660Z,40.17
2019-02-14T11:01:19.112Z,39.01
2019-02-14T11:03:45.592Z,38.59
2019-02-14T11:06:11.880Z,37.95
2019-02-14T11:08:41.247Z,38.00
2019-02-14T11:11:07.814Z,35.78
2019-02-14T11:13:34.671Z,36.07
2019-02-14T11:16:01.069Z,35.59
2019-02-14T11:18:27.341Z,35.33
2019-02-14T11:20:53.597Z,33.71
2019-02-14T11:23:34.887Z,34.80
2019-02-14T11:26:01.401Z,32.71
2019-02-14T11:28:27.773Z,33.72
2019-02-14T11:30:54.377Z,32.54
2019-02-14T11:33:20.753Z,31.93
2019-02-14T11:36:09.942Z,31.77
2019-02-14T11:38:40.376Z,30.81
2019-02-14T11:41:07.107Z,31.87
2019-02-14T11:43:53.051Z,31.45
2019-02-14T11:46:16.559Z,30.95
2019-02-14T11:48:43.020Z,30.06
2019-02-14T11:51:09.177Z,29.40
2019-02-14T11:53:35.433Z,29.57
2019-02-14T11:56:01.943Z,28.93
2019-02-14T11:58:28.319Z,28.44
2019-02-14T12:00:54.579Z,27.91
2019-02-14T12:03:20.886Z,28.69
2019-02-14T12:05:47.075Z,27.84
2019-02-14T12:08:13.351Z,27.85
2019-02-14T12:10:39.506Z,28.18
2019-02-14T12:13:05.778Z,27.10
2019-02-14T12:15:32.163Z,27.34
2019-02-14T12:18:00.550Z,26.63
2019-02-14T12:20:26.824Z,26.70
2019-02-14T12:22:55.204Z,26.81
2019-02-14T12:25:28.072Z,26.50
2019-02-14T12:27:54.436Z,25.48
2019-02-14T12:30:20.572Z,26.17
2019-02-14T12:32:46.868Z,26.04
2019-02-14T12:35:13.003Z,25.62
2019-02-14T12:37:39.340Z,25.31
2019-02-14T12:40:09.015Z,25.19
2019-02-14T12:42:35.368Z,24.59
2019-02-14T12:45:01.694Z,24.44
2019-02-14T12:47:28.246Z,24.54
2019-02-14T12:49:54.519Z,23.52
2019-02-14T12:52:20.923Z,24.40
2019-02-14T12:54:47.084Z,23.95
2019-02-14T12:57:13.327Z,23.44
2019-02-14T12:59:39.523Z,23.54
2019-02-14T13:02:12.405Z,23.11
2019-02-14T13:04:41.400Z,22.11
2019-02-14T13:07:07.631Z,22.50
2019-02-14T13:09:33.891Z,22.02
2019-02-14T13:12:00.263Z,22.78
2019-02-14T13:14:26.540Z,21.94
2019-02-14T13:16:52.819Z,22.17
2019-02-14T13:19:22.373Z,22.70
2019-02-14T13:21:51.291Z,21.98
2019-02-14T13:24:19.676Z,21.70
2019-02-14T13:26:46.196Z,22.52
2019-02-14T13:29:12.349Z,22.10
2019-02-14T13:31:38.776Z,22.22
2019-02-14T13:34:05.052Z,22.34
2019-02-14T13:36:31.453Z,21.83
2019-02-14T13:38:57.760Z,21.23
2019-02-14T13:41:30.983Z,21.49
2019-02-14T13:43:52.234Z,22.24
2019-02-14T13:46:18.576Z,22.41
2019-02-14T13:48:45.973Z,21.79
2019-02-14T13:51:12.189Z,23.09
2019-02-14T13:53:38.507Z,23.69
2019-02-14T13:56:04.692Z,24.09
2019-02-14T13:58:30.785Z,24.00
2019-02-14T14:00:56.971Z,24.91
2019-02-14T14:03:23.131Z,25.38
2019-02-14T14:05:49.382Z,25.23
2019-02-14T14:08:15.606Z,25.77
2019-02-14T14:10:41.778Z,26.33
2019-02-14T14:13:07.906Z,27.60
2019-02-14T14:15:34.675Z,28.28
2019-02-14T14:18:00.788Z,28.75
2019-02-14T14:20:27.286Z,29.01
2019-02-14T14:22:53.380Z,29.35
2019-02-14T14:25:19.593Z,30.26
2019-02-14T14:27:46.088Z,30.51
2019-02-14T14:30:12.920Z,31.59
2019-02-14T14:32:39.642Z,32.59
2019-02-14T14:35:10.979Z,32.74
2019-02-14T14:37:39.092Z,32.61
2019-02-14T14:40:11.570Z,32.51
2019-02-14T14:42:51.732Z,33.60
2019-02-14T14:45:31.712Z,34.34
2019-02-14T14:47:57.976Z,35.27
2019-02-14T14:50:26.306Z,36.07
2019-02-14T14:52:52.901Z,36.01
2019-02-14T14:55:19.133Z,35.83
2019-02-14T14:57:45.262Z,35.73
2019-02-14T15:00:12.055Z,36.22
2019-02-14T15:02:38.203Z,37.34
2019-02-14T15:05:05.469Z,37.47
2019-02-14T15:07:31.736Z,37.96
2019-02-14T15:09:58.027Z,38.00
2019-02-14T15:12:24.231Z,38.41
2019-02-14T15:14:50.377Z,38.72
2019-02-14T15:17:16.624Z,39.23
2019-02-14T15:19:42.766Z,39.37
2019-02-14T15:22:09.157Z,39.61
2019-02-14T15:24:35.308Z,39.88
2019-02-14T15:27:01.666Z,40.04
2019-02-14T15:29:27.845Z,40.67
2019-02-14T15:31:54.026Z,41.10
2019-02-14T15:34:20.359Z,41.45
2019-02-14T15:36:47.299Z,41.66
2019-02-14T15:39:14.782Z,42.14
2019-02-14T15:41:41.066Z,42.32
2019-02-14T15:44:07.313Z,42.82
2019-02-14T15:46:33.386Z,43.20
2019-02-14T15:49:00.526Z,43.73
2019-02-14T15:51:27.401Z,44.13
2019-02-14T15:53:54.469Z,44.55
2019-02-14T15:56:20.703Z,44.92
2019-02-14T15:58:47.213Z,45.58
2019-02-14T16:01:16.480Z,46.39
2019-02-14T16:03:43.060Z,47.16
2019-02-14T16:06:09.366Z,47.86
2019-02-14T16:08:35.844Z,48.47
2019-02-14T16:11:02.371Z,48.81
2019-02-14T16:13:31.693Z,49.29
2019-02-14T16:15:58.774Z,49.76
2019-02-14T16:18:25.380Z,50.61
2019-02-14T16:20:52.202Z,51.47
2019-02-14T16:23:18.366Z,52.30
2019-02-14T16:25:44.632Z,52.63
2019-02-14T16:28:11.560Z,53.17
2019-02-14T16:30:39.103Z,53.88
2019-02-14T16:33:05.323Z,54.27
2019-02-14T16:35:31.604Z,54.55
2019-02-14T16:37:57.887Z,54.74
2019-02-14T16:40:27.925Z,54.83
2019-02-14T16:42:53.493Z,54.59
2019-02-14T16:45:19.798Z,54.66
2019-02-14T16:47:46.390Z,54.96
2019-02-14T16:50:13.970Z,55.10
2019-02-14T16:52:40.524Z,55.31
2019-02-14T16:55:06.693Z,55.59
2019-02-14T16:57:33.954Z,55.83
2019-02-14T17:00:01.175Z,55.90
2019-02-14T17:02:27.822Z,56.06
2019-02-14T17:04:53.929Z,56.19
2019-02-14T17:07:20.146Z,56.43
2019-02-14T17:09:46.717Z,56.69
2019-02-14T17:12:12.941Z,56.71
2019-02-14T17:14:39.286Z,56.78
2019-02-14T17:17:05.540Z,57.05
2019-02-14T17:19:31.656Z,57.37
2019-02-14T17:21:58.182Z,57.62
2019-02-14T17:24:24.457Z,57.91
2019-02-14T17:26:52.979Z,58.07
2019-02-14T17:29:19.301Z,58.22
2019-02-14T17:31:46.431Z,58.26
2019-02-14T17:34:12.900Z,58.17
2019-02-14T17:36:42.078Z,58.25
2019-02-14T17:39:08.558Z,58.36
2019-02-14T17:41:34.958Z,58.46
2019-02-14T17:44:01.108Z,58.65
2019-02-14T17:46:27.434Z,58.92
2019-02-14T17:48:53.684Z,59.24
2019-02-14T17:51:19.893Z,59.83
2019-02-14T17:53:46.096Z,59.87
2019-02-14T17:56:14.261Z,59.88
2019-02-14T17:58:50.981Z,59.77
2019-02-14T18:01:10.250Z,59.72
2019-02-14T18:03:36.535Z,59.58
2019-02-14T18:06:02.962Z,59.58
2019-02-14T18:08:29.202Z,59.51
2019-02-14T18:10:56.354Z,59.28
2019-02-14T18:13:22.931Z,59.42
2019-02-14T18:15:49.839Z,59.27
2019-02-14T18:18:16.014Z,59.18
2019-02-14T18:20:43.206Z,59.09
2019-02-14T18:23:09.536Z,59.06
2019-02-14T18:25:35.726Z,59.11
2019-02-14T18:28:01.946Z,59.15
2019-02-14T18:30:28.355Z,59.27
2019-02-14T18:32:54.790Z,59.30
2019-02-14T18:35:21.039Z,59.43
2019-02-14T18:37:47.584Z,59.57
2019-02-14T18:40:13.842Z,59.55
2019-02-14T18:42:42.729Z,59.63
2019-02-14T18:45:10.985Z,59.78
2019-02-14T18:47:39.730Z,59.78
2019-02-14T18:50:08.153Z,60.06
2019-02-14T18:52:34.403Z,60.25
2019-02-14T18:55:00.725Z,60.55
2019-02-14T18:57:26.997Z,60.67
2019-02-14T18:59:53.101Z,60.89
2019-02-14T19:02:19.333Z,61.08
2019-02-14T19:04:45.455Z,61.06
2019-02-14T19:07:12.274Z,61.07
2019-02-14T19:09:38.578Z,61.02
2019-02-14T19:12:06.713Z,61.09
2019-02-14T19:14:32.886Z,61.33
2019-02-14T19:16:59.547Z,61.34
2019-02-14T19:19:25.867Z,61.37
2019-02-14T19:21:52.051Z,61.52
2019-02-14T19:24:18.764Z,61.92
2019-02-14T19:26:44.968Z,61.78
2019-02-14T19:29:11.160Z,61.93
2019-02-14T19:31:37.287Z,62.05
2019-02-14T19:34:03.525Z,62.21
2019-02-14T19:36:29.613Z,62.24
2019-02-14T19:38:55.850Z,62.36
2019-02-14T19:41:25.325Z,62.57
2019-02-14T19:43:50.246Z,62.62
2019-02-14T19:46:16.724Z,62.75
2019-02-14T19:48:43.061Z,62.70
2019-02-14T19:51:09.328Z,62.71
2019-02-14T19:53:35.610Z,62.79
2019-02-14T19:56:01.868Z,63.12
2019-02-14T19:58:28.383Z,63.04
2019-02-14T20:00:54.488Z,63.13
2019-02-14T20:03:20.863Z,63.02
2019-02-14T20:05:46.984Z,63.10
2019-02-14T20:08:13.267Z,62.98
2019-02-14T20:10:39.418Z,63.01
2019-02-14T20:13:05.611Z,62.96
2019-02-14T20:15:37.072Z,63.11
2019-02-14T20:18:00.357Z,63.03
2019-02-14T20:20:26.658Z,62.86
2019-02-14T20:22:52.930Z,63.11
2019-02-14T20:25:22.868Z,63.01
2019-02-14T20:27:50.059Z,62.99
2019-02-14T20:30:17.066Z,62.96
2019-02-14T20:32:43.175Z,62.93
2019-02-14T20:35:09.387Z,63.16
2019-02-14T20:37:35.541Z,63.49
2019-02-14T20:40:05.500Z,63.73
2019-02-14T20:42:31.812Z,63.66
2019-02-14T20:44:58.071Z,63.70
2019-02-14T20:47:24.315Z,63.52
2019-02-14T20:49:50.521Z,63.48
2019-02-14T20:52:20.260Z,63.69
2019-02-14T20:54:47.010Z,63.64
2019-02-14T20:57:13.154Z,63.79
2019-02-14T20:59:39.410Z,63.89
2019-02-14T21:02:05.690Z,63.88
2019-02-14T21:04:31.891Z,63.80
2019-02-14T21:06:58.201Z,63.70
2019-02-14T21:09:24.404Z,63.82
2019-02-14T21:11:54.649Z,63.59
2019-02-14T21:14:19.058Z,63.56
2019-02-14T21:16:45.208Z,63.51
2019-02-14T21:19:11.443Z,63.32
2019-02-14T21:21:37.763Z,63.43
2019-02-14T21:24:03.880Z,63.43
2019-02-14T21:26:30.089Z,63.56
2019-02-14T21:28:56.185Z,63.68
2019-02-14T21:31:22.431Z,64.23
2019-02-14T21:33:48.575Z,64.03
2019-02-14T21:36:15.054Z,64.23
2019-02-14T21:38:41.282Z,64.34
2019-02-14T21:41:07.473Z,64.51
2019-02-14T21:43:33.621Z,64.77
2019-02-14T21:45:59.929Z,64.62
2019-02-14T21:48:26.036Z,64.53
2019-02-14T21:50:52.267Z,64.59
2019-02-14T21:53:18.607Z,64.50
2019-02-14T21:55:44.817Z,64.49
2019-02-14T21:58:10.934Z,64.48
2019-02-14T22:00:37.152Z,64.50
2019-02-14T22:03:03.285Z,64.58
2019-02-14T22:05:29.466Z,64.85
2019-02-14T22:07:55.630Z,64.98
2019-02-14T22:10:21.841Z,65.17
2019-02-14T22:12:48.106Z,65.23
2019-02-14T22:15:17.495Z,65.06
2019-02-14T22:17:43.715Z,65.12
2019-02-14T22:20:09.853Z,65.17
2019-02-14T22:22:36.051Z,65.12
2019-02-14T22:25:02.748Z,65.10
2019-02-14T22:27:28.946Z,64.93
2019-02-14T22:29:55.092Z,64.74
2019-02-14T22:32:21.313Z,64.80
2019-02-14T22:34:47.461Z,64.99
2019-02-14T22:37:13.704Z,64.92
2019-02-14T22:39:39.803Z,65.22
2019-02-14T22:42:06.000Z,65.29
2019-02-14T22:44:32.141Z,65.23
2019-02-14T22:46:58.315Z,65.12
2019-02-14T22:49:24.465Z,65.33
2019-02-14T22:51:50.597Z,65.38
2019-02-14T22:54:16.763Z,65.44
2019-02-14T22:56:42.903Z,65.22
2019-02-14T22:59:09.045Z,65.26
2019-02-14T23:01:35.197Z,65.10
2019-02-14T23:04:01.346Z,65.03
2019-02-14T23:06:28.604Z,64.91
2019-02-14T23:08:54.836Z,65.15
2019-02-14T23:11:21.027Z,65.10
2019-02-14T23:13:47.243Z,65.04
2019-02-14T23:16:13.508Z,65.20
2019-02-14T23:18:40.848Z,65.12
2019-02-14T23:21:07.089Z,65.13
2019-02-14T23:23:33.675Z,64.98
2019-02-14T23:25:59.937Z,64.96
2019-02-14T23:28:26.629Z,64.94
2019-02-14T23:30:53.262Z,64.94
2019-02-14T23:33:19.522Z,65.06
2019-02-14T23:35:46.577Z,65.38
2019-02-14T23:38:13.021Z,65.42
2019-02-14T23:40:39.822Z,65.37
2019-02-14T23:43:07.299Z,65.30
2019-02-14T23:45:33.676Z,65.11
2019-02-14T23:47:59.994Z,64.92
2019-02-14T23:50:26.208Z,64.80
2019-02-14T23:52:52.311Z,64.52
2019-02-14T23:55:18.534Z,64.26
2019-02-14T23:57:44.955Z,64.06
